createdAt,value
2022-12-23T00:01:02.326Z,8.90
2022-12-23T00:03:31.061Z,8.90
2022-12-23T00:05:58.448Z,9.00
2022-12-23T00:08:26.076Z,9.00
2022-12-23T00:10:54.942Z,9.00
2022-12-23T00:13:40.811Z,9.00
2022-12-23T00:16:08.303Z,8.80
2022-12-23T00:18:36.077Z,8.80
2022-12-23T00:21:13.608Z,8.80
2022-12-23T00:23:42.780Z,8.80
2022-12-23T00:26:14.139Z,8.70
2022-12-23T00:28:41.588Z,8.90
2022-12-23T00:31:09.587Z,8.60
2022-12-23T00:33:38.200Z,8.80
2022-12-23T00:36:18.093Z,8.80
2022-12-23T00:39:04.378Z,8.80
2022-12-23T00:41:49.925Z,8.60
2022-12-23T00:44:17.264Z,8.80
2022-12-23T00:46:44.613Z,8.80
2022-12-23T00:49:30.895Z,8.70
2022-12-23T00:51:58.545Z,8.80
2022-12-23T00:54:26.075Z,8.80
2022-12-23T00:56:53.630Z,8.70
2022-12-23T00:59:20.875Z,8.80
2022-12-23T01:02:06.711Z,8.90
2022-12-23T01:04:52.671Z,9.00
2022-12-23T01:07:20.117Z,8.90
2022-12-23T01:09:47.525Z,8.90
2022-12-23T01:12:14.747Z,8.80
2022-12-23T01:14:41.978Z,8.80
2022-12-23T01:17:09.604Z,8.90
2022-12-23T01:19:37.064Z,8.90
2022-12-23T01:22:04.490Z,8.80
2022-12-23T01:24:31.956Z,8.80
2022-12-23T01:26:59.576Z,8.90
2022-12-23T01:29:26.814Z,8.80
2022-12-23T01:31:54.171Z,8.90
2022-12-23T01:34:21.404Z,8.80
2022-12-23T01:36:48.644Z,8.90
2022-12-23T01:39:15.861Z,8.90
2022-12-23T01:42:01.839Z,8.80
2022-12-23T01:44:47.827Z,8.90
2022-12-23T01:47:19.191Z,8.80
2022-12-23T01:49:47.010Z,8.60
2022-12-23T01:52:14.697Z,8.70
2022-12-23T01:54:43.110Z,8.80
2022-12-23T01:57:10.836Z,8.90
2022-12-23T01:59:56.382Z,8.90
2022-12-23T02:02:42.514Z,8.90
2022-12-23T02:05:09.830Z,8.90
2022-12-23T02:07:55.786Z,8.90
2022-12-23T02:10:25.799Z,8.90
2022-12-23T02:13:28.362Z,8.80
2022-12-23T02:16:18.653Z,8.80
2022-12-23T02:19:01.013Z,8.80
2022-12-23T02:21:28.762Z,8.80
2022-12-23T02:24:02.206Z,8.90
2022-12-23T02:26:47.865Z,8.90
2022-12-23T02:29:24.146Z,8.70
2022-12-23T02:31:57.143Z,8.80
2022-12-23T02:34:34.344Z,8.70
2022-12-23T02:37:19.301Z,8.70
2022-12-23T02:39:49.709Z,8.70
2022-12-23T02:42:22.401Z,8.70
2022-12-23T02:45:09.833Z,8.70
2022-12-23T02:47:42.490Z,8.70
2022-12-23T02:50:11.657Z,8.60
2022-12-23T02:52:39.380Z,8.50
2022-12-23T02:55:10.118Z,8.60
2022-12-23T02:57:38.680Z,8.60
2022-12-23T03:00:06.908Z,8.80
2022-12-23T03:02:36.507Z,8.70
2022-12-23T03:05:03.976Z,8.70
2022-12-23T03:07:33.840Z,8.70
2022-12-23T03:10:07.059Z,8.60
2022-12-23T03:13:03.821Z,8.50
2022-12-23T03:15:42.948Z,8.50
2022-12-23T03:18:10.269Z,8.70
2022-12-23T03:20:37.581Z,8.70
2022-12-23T03:23:07.942Z,8.70
2022-12-23T03:25:45.626Z,8.70
2022-12-23T03:28:20.518Z,8.70
2022-12-23T03:30:51.211Z,8.70
2022-12-23T03:33:20.609Z,8.70
2022-12-23T03:35:51.085Z,8.70
2022-12-23T03:38:19.110Z,8.60
2022-12-23T03:40:57.831Z,8.60
2022-12-23T03:43:26.810Z,8.60
2022-12-23T03:45:59.484Z,8.70
2022-12-23T03:48:30.103Z,8.80
2022-12-23T03:50:59.868Z,8.90
2022-12-23T03:53:32.157Z,8.90
2022-12-23T03:56:01.537Z,8.90
2022-12-23T03:58:35.444Z,8.90
2022-12-23T04:01:05.920Z,8.90
2022-12-23T04:03:53.087Z,8.80
2022-12-23T04:06:21.142Z,8.80
2022-12-23T04:08:48.969Z,8.70
2022-12-23T04:11:16.520Z,8.70
2022-12-23T04:13:43.879Z,8.80
2022-12-23T04:16:11.222Z,8.70
2022-12-23T04:18:38.564Z,8.80
2022-12-23T04:21:06.103Z,8.90
2022-12-23T04:23:33.467Z,8.80
2022-12-23T04:26:00.772Z,8.80
2022-12-23T04:28:28.040Z,8.80
2022-12-23T04:30:55.337Z,8.80
2022-12-23T04:33:22.694Z,8.80
2022-12-23T04:35:50.045Z,8.80
2022-12-23T04:38:17.340Z,8.80
2022-12-23T04:40:47.579Z,8.80
2022-12-23T04:43:14.805Z,8.70
2022-12-23T04:45:42.052Z,8.80
2022-12-23T04:48:09.540Z,8.90
2022-12-23T04:50:36.767Z,8.90
2022-12-23T04:53:04.047Z,8.90
2022-12-23T04:55:31.265Z,8.90
2022-12-23T04:57:58.567Z,8.80
2022-12-23T05:00:25.799Z,8.80
2022-12-23T05:02:53.214Z,8.80
2022-12-23T05:05:20.663Z,8.80
2022-12-23T05:07:51.192Z,8.80
2022-12-23T05:10:18.519Z,8.80
2022-12-23T05:12:45.724Z,8.80
2022-12-23T05:15:12.951Z,8.80
2022-12-23T05:17:40.251Z,8.80
2022-12-23T05:20:08.636Z,8.70
2022-12-23T05:22:35.865Z,8.60
2022-12-23T05:25:03.087Z,8.70
2022-12-23T05:27:30.414Z,8.50
2022-12-23T05:29:57.601Z,8.60
2022-12-23T05:32:24.874Z,8.50
2022-12-23T05:34:52.089Z,8.60
2022-12-23T05:37:19.243Z,8.40
2022-12-23T05:39:46.410Z,8.50
2022-12-23T05:42:17.369Z,8.40
2022-12-23T05:44:44.844Z,8.50
2022-12-23T05:47:12.104Z,8.40
2022-12-23T05:49:39.467Z,8.30
2022-12-23T05:52:06.685Z,8.30
2022-12-23T05:54:33.879Z,8.30
2022-12-23T05:57:01.191Z,8.30
2022-12-23T05:59:31.226Z,8.20
2022-12-23T06:01:59.321Z,8.30
2022-12-23T06:04:26.794Z,8.30
2022-12-23T06:06:54.030Z,8.40
2022-12-23T06:09:21.301Z,8.20
2022-12-23T06:11:48.627Z,8.30
2022-12-23T06:14:15.874Z,8.40
2022-12-23T06:16:43.167Z,8.40
2022-12-23T06:19:10.458Z,8.30
2022-12-23T06:21:37.678Z,8.20
2022-12-23T06:24:05.034Z,8.30
2022-12-23T06:26:33.703Z,8.10
2022-12-23T06:29:00.920Z,8.10
2022-12-23T06:31:28.301Z,8.20
2022-12-23T06:33:55.557Z,8.30
2022-12-23T06:36:22.746Z,8.40
2022-12-23T06:38:49.971Z,8.30
2022-12-23T06:41:17.402Z,8.30
2022-12-23T06:43:44.655Z,8.40
2022-12-23T06:46:12.395Z,8.20
2022-12-23T06:48:39.669Z,8.30
2022-12-23T06:51:06.979Z,8.20
2022-12-23T06:53:34.293Z,8.30
2022-12-23T06:56:02.574Z,8.20
2022-12-23T06:58:30.140Z,8.30
2022-12-23T07:00:57.391Z,8.40
2022-12-23T07:03:24.746Z,8.40
2022-12-23T07:05:51.952Z,8.40
2022-12-23T07:08:19.556Z,8.40
2022-12-23T07:10:46.844Z,8.40
2022-12-23T07:13:14.173Z,8.50
2022-12-23T07:15:41.467Z,8.50
2022-12-23T07:18:08.732Z,8.50
2022-12-23T07:20:36.012Z,8.60
2022-12-23T07:23:03.432Z,8.60
2022-12-23T07:25:30.725Z,8.60
2022-12-23T07:27:57.987Z,8.60
2022-12-23T07:30:25.865Z,8.60
2022-12-23T07:32:53.427Z,8.60
2022-12-23T07:35:20.738Z,8.60
2022-12-23T07:37:51.688Z,8.60
2022-12-23T07:40:18.932Z,8.70
2022-12-23T07:42:48.287Z,8.50
2022-12-23T07:45:16.008Z,8.60
2022-12-23T07:47:43.384Z,8.70
2022-12-23T07:50:10.799Z,8.70
2022-12-23T07:52:38.049Z,8.80
2022-12-23T07:55:05.659Z,8.90
2022-12-23T07:57:38.013Z,9.00
2022-12-23T08:00:07.096Z,9.00
2022-12-23T08:02:39.989Z,9.10
2022-12-23T08:05:07.894Z,9.10
2022-12-23T08:07:35.354Z,9.10
2022-12-23T08:10:02.960Z,9.00
2022-12-23T08:12:30.231Z,9.00
2022-12-23T08:14:57.415Z,8.90
2022-12-23T08:17:28.055Z,9.00
2022-12-23T08:19:55.486Z,9.00
2022-12-23T08:22:23.040Z,9.10
2022-12-23T08:24:50.585Z,9.10
2022-12-23T08:27:18.014Z,9.20
2022-12-23T08:29:45.471Z,9.40
2022-12-23T08:32:12.698Z,9.30
2022-12-23T08:34:40.002Z,9.40
2022-12-23T08:37:07.286Z,9.60
2022-12-23T08:39:34.595Z,9.50
2022-12-23T08:42:01.952Z,9.70
2022-12-23T08:44:29.828Z,9.60
2022-12-23T08:46:57.096Z,9.50
2022-12-23T08:49:24.299Z,9.60
2022-12-23T08:51:51.660Z,9.50
2022-12-23T08:54:20.528Z,9.50
2022-12-23T08:56:47.852Z,9.50
2022-12-23T08:59:19.291Z,9.50
2022-12-23T09:01:47.418Z,9.50
2022-12-23T09:04:14.881Z,9.60
2022-12-23T09:06:42.550Z,9.50
2022-12-23T09:09:11.551Z,9.70
2022-12-23T09:11:39.103Z,9.90
2022-12-23T09:14:08.660Z,10.10
2022-12-23T09:16:36.557Z,10.10
2022-12-23T09:19:04.375Z,10.30
2022-12-23T09:21:31.645Z,10.60
2022-12-23T09:23:58.908Z,10.50
2022-12-23T09:26:27.751Z,10.20
2022-12-23T09:28:55.568Z,10.30
2022-12-23T09:31:23.392Z,10.40
2022-12-23T09:33:51.888Z,10.30
2022-12-23T09:36:19.091Z,10.40
2022-12-23T09:38:46.385Z,10.20
2022-12-23T09:41:27.651Z,10.30
2022-12-23T09:44:13.673Z,10.30
2022-12-23T09:47:01.298Z,10.20
2022-12-23T09:49:28.719Z,10.50
2022-12-23T09:52:01.700Z,10.40
2022-12-23T09:54:32.475Z,10.60
2022-12-23T09:57:08.324Z,10.60
2022-12-23T09:59:35.542Z,10.60
2022-12-23T10:02:05.954Z,10.60
2022-12-23T10:04:45.510Z,10.60
2022-12-23T10:07:17.479Z,10.60
2022-12-23T10:09:47.495Z,10.50
2022-12-23T10:12:25.308Z,10.50
2022-12-23T10:14:56.850Z,10.70
2022-12-23T10:17:39.586Z,10.80
2022-12-23T10:20:10.231Z,10.70
2022-12-23T10:22:40.280Z,10.90
2022-12-23T10:25:15.787Z,11.00
2022-12-23T10:27:43.947Z,10.70
2022-12-23T10:30:49.508Z,10.50
2022-12-23T10:33:22.621Z,10.80
2022-12-23T10:35:49.876Z,10.70
2022-12-23T10:38:35.665Z,10.80
2022-12-23T10:41:23.285Z,10.80
2022-12-23T10:43:50.561Z,10.80
2022-12-23T10:46:36.245Z,10.80
2022-12-23T10:49:31.479Z,10.70
2022-12-23T10:52:13.748Z,10.50
2022-12-23T10:54:42.080Z,10.40
2022-12-23T10:57:09.647Z,10.70
2022-12-23T10:59:36.933Z,10.80
2022-12-23T11:02:13.748Z,10.90
2022-12-23T11:04:46.126Z,11.10
2022-12-23T11:10:07.585Z,11.10
2022-12-23T11:12:42.537Z,11.10
2022-12-23T11:15:36.524Z,11.40
2022-12-23T11:18:12.995Z,11.30
2022-12-23T11:20:41.602Z,11.20
2022-12-23T11:23:24.323Z,11.10
2022-12-23T11:25:59.911Z,11.10
2022-12-23T11:28:27.249Z,11.30
2022-12-23T11:31:09.504Z,11.40
2022-12-23T11:33:41.531Z,11.40
2022-12-23T11:36:25.559Z,11.50
2022-12-23T11:38:54.660Z,11.70
2022-12-23T11:41:26.865Z,11.80
2022-12-23T11:43:58.376Z,11.70
2022-12-23T11:46:26.891Z,11.80
2022-12-23T11:49:31.446Z,11.70
2022-12-23T11:52:07.644Z,11.90
2022-12-23T11:54:34.965Z,11.60
2022-12-23T11:57:04.041Z,11.50
2022-12-23T11:59:41.855Z,11.20
2022-12-23T12:02:20.777Z,11.10
2022-12-23T12:05:14.346Z,11.30
2022-12-23T12:07:45.187Z,11.40
2022-12-23T12:10:32.762Z,11.60
2022-12-23T12:13:02.699Z,11.60
2022-12-23T12:15:50.163Z,11.50
2022-12-23T12:18:19.443Z,11.90
2022-12-23T12:20:48.734Z,11.80
2022-12-23T12:23:45.339Z,11.90
2022-12-23T12:26:25.848Z,11.70
2022-12-23T12:29:16.196Z,11.70
2022-12-23T12:31:51.414Z,11.70
2022-12-23T12:34:33.839Z,11.60
2022-12-23T12:37:19.885Z,11.90
2022-12-23T12:39:53.516Z,11.80
2022-12-23T12:42:25.024Z,11.90
2022-12-23T12:45:12.485Z,11.90
2022-12-23T12:47:53.840Z,11.80
2022-12-23T12:50:29.406Z,11.90
2022-12-23T12:52:59.227Z,11.70
2022-12-23T12:55:29.264Z,11.60
2022-12-23T12:57:56.582Z,11.50
2022-12-23T13:00:24.312Z,11.20
2022-12-23T13:03:10.146Z,10.90
2022-12-23T13:05:48.467Z,11.00
2022-12-23T13:08:37.460Z,11.10
2022-12-23T13:11:10.881Z,10.90
2022-12-23T13:13:41.216Z,11.10
2022-12-23T13:16:17.899Z,11.00
2022-12-23T13:19:05.484Z,10.80
2022-12-23T13:21:39.123Z,11.00
2022-12-23T13:24:24.624Z,11.10
2022-12-23T13:27:03.869Z,10.90
2022-12-23T13:29:42.896Z,11.10
2022-12-23T13:32:19.222Z,11.00
2022-12-23T13:34:46.520Z,11.10
2022-12-23T13:37:13.802Z,11.10
2022-12-23T13:40:02.424Z,11.10
2022-12-23T13:42:38.233Z,11.10
2022-12-23T13:45:06.822Z,11.10
2022-12-23T13:47:44.935Z,11.10
2022-12-23T13:50:29.278Z,10.80
2022-12-23T13:53:16.065Z,11.10
2022-12-23T13:56:18.634Z,11.10
2022-12-23T13:58:49.776Z,11.20
2022-12-23T14:01:17.805Z,11.20
2022-12-23T14:03:47.594Z,11.10
2022-12-23T14:06:22.203Z,11.10
2022-12-23T14:08:49.745Z,11.00
2022-12-23T14:11:24.394Z,11.10
2022-12-23T14:13:51.806Z,11.10
2022-12-23T14:16:37.365Z,11.20
2022-12-23T14:19:13.472Z,11.20
2022-12-23T14:21:50.208Z,11.20
2022-12-23T14:24:26.552Z,11.10
2022-12-23T14:27:11.865Z,11.10
2022-12-23T14:29:45.003Z,11.00
2022-12-23T14:32:19.787Z,11.00
2022-12-23T14:35:05.858Z,11.00
2022-12-23T14:37:34.089Z,10.90
2022-12-23T14:40:21.406Z,10.90
2022-12-23T14:42:48.697Z,10.80
2022-12-23T14:45:36.347Z,10.80
2022-12-23T14:48:23.534Z,10.80
2022-12-23T14:51:01.105Z,10.80
2022-12-23T14:53:29.528Z,11.00
2022-12-23T14:56:23.260Z,11.00
2022-12-23T14:58:53.476Z,11.00
2022-12-23T15:01:40.925Z,11.00
2022-12-23T15:04:16.784Z,10.90
2022-12-23T15:07:04.291Z,10.80
2022-12-23T15:09:33.145Z,10.70
2022-12-23T15:12:02.307Z,10.60
2022-12-23T15:14:34.430Z,10.70
2022-12-23T15:17:14.806Z,10.60
2022-12-23T15:19:46.327Z,10.50
2022-12-23T15:22:22.713Z,10.40
2022-12-23T15:24:51.246Z,10.30
2022-12-23T15:27:27.313Z,10.20
2022-12-23T15:29:55.563Z,10.20
2022-12-23T15:32:23.848Z,10.10
2022-12-23T15:34:52.290Z,10.00
2022-12-23T15:37:26.675Z,9.90
2022-12-23T15:40:02.078Z,10.00
2022-12-23T15:42:38.565Z,9.80
2022-12-23T15:45:29.515Z,9.90
2022-12-23T15:47:56.837Z,9.80
2022-12-23T15:50:24.374Z,9.70
2022-12-23T15:52:54.184Z,9.60
2022-12-23T15:55:40.261Z,9.60
2022-12-23T15:58:07.652Z,9.70
2022-12-23T16:00:49.569Z,9.60
2022-12-23T16:03:23.063Z,9.30
2022-12-23T16:05:50.564Z,9.10
2022-12-23T16:08:19.372Z,9.10
2022-12-23T16:10:56.115Z,9.20
2022-12-23T16:13:23.742Z,9.30
2022-12-23T16:15:51.084Z,9.30
2022-12-23T16:18:32.800Z,9.10
2022-12-23T16:21:01.814Z,9.10
2022-12-23T16:23:34.899Z,9.00
2022-12-23T16:26:02.417Z,9.10
2022-12-23T16:28:34.181Z,8.90
2022-12-23T16:31:01.574Z,9.10
2022-12-23T16:33:45.675Z,9.20
2022-12-23T16:36:16.032Z,9.20
2022-12-23T16:38:43.793Z,9.10
2022-12-23T16:41:11.197Z,9.20
2022-12-23T16:43:38.503Z,9.30
2022-12-23T16:46:05.912Z,9.30
2022-12-23T16:48:40.332Z,9.20
2022-12-23T16:51:09.255Z,9.30
2022-12-23T16:53:36.819Z,9.40
2022-12-23T16:56:10.047Z,9.40
2022-12-23T16:58:37.237Z,9.30
2022-12-23T17:01:04.551Z,9.30
2022-12-23T17:03:32.948Z,9.50
2022-12-23T17:06:00.318Z,9.60
2022-12-23T17:08:27.549Z,9.60
2022-12-23T17:10:55.711Z,9.50
2022-12-23T17:13:22.898Z,9.50
2022-12-23T17:15:50.102Z,9.40
2022-12-23T17:18:18.345Z,9.60
2022-12-23T17:20:46.339Z,9.60
2022-12-23T17:23:24.562Z,9.80
2022-12-23T17:25:52.271Z,9.90
2022-12-23T17:28:20.719Z,10.00
2022-12-23T17:30:49.812Z,10.10
2022-12-23T17:33:18.417Z,10.20
2022-12-23T17:35:45.799Z,10.10
2022-12-23T17:38:13.969Z,10.10
2022-12-23T17:40:41.803Z,10.20
2022-12-23T17:43:12.533Z,10.30
2022-12-23T17:45:39.890Z,10.40
2022-12-23T17:48:08.628Z,10.30
2022-12-23T17:50:35.863Z,10.30
2022-12-23T17:53:04.425Z,10.30
2022-12-23T17:55:31.725Z,10.40
2022-12-23T17:57:59.070Z,10.40
2022-12-23T18:00:34.001Z,10.20
2022-12-23T18:03:01.707Z,10.10
2022-12-23T18:05:30.438Z,10.20
2022-12-23T18:07:58.578Z,10.20
2022-12-23T18:10:27.840Z,10.10
2022-12-23T18:13:05.914Z,10.00
2022-12-23T18:15:37.332Z,10.10
2022-12-23T18:18:13.862Z,10.10
2022-12-23T18:20:42.701Z,10.00
2022-12-23T18:23:21.277Z,10.00
2022-12-23T18:25:48.564Z,10.00
2022-12-23T18:28:15.874Z,9.90
2022-12-23T18:30:43.223Z,10.10
2022-12-23T18:33:11.293Z,10.20
2022-12-23T18:35:42.998Z,10.10
2022-12-23T18:38:11.002Z,10.10
2022-12-23T18:40:38.564Z,10.10
2022-12-23T18:43:06.162Z,10.10
2022-12-23T18:45:35.125Z,10.10
2022-12-23T18:48:03.761Z,10.10
2022-12-23T18:50:31.994Z,10.10
2022-12-23T18:52:59.582Z,10.10
2022-12-23T18:55:28.002Z,10.10
2022-12-23T18:57:55.289Z,10.10
2022-12-23T19:00:24.246Z,10.20
2022-12-23T19:02:52.648Z,10.10
2022-12-23T19:05:21.765Z,10.00
2022-12-23T19:07:49.696Z,9.90
2022-12-23T19:10:27.100Z,9.90
2022-12-23T19:12:54.731Z,10.00
2022-12-23T19:15:22.859Z,10.00
2022-12-23T19:17:52.693Z,10.00
2022-12-23T19:20:20.320Z,10.00
2022-12-23T19:22:47.979Z,10.10
2022-12-23T19:25:17.068Z,10.00
2022-12-23T19:27:44.858Z,10.10
2022-12-23T19:30:13.854Z,10.20
2022-12-23T19:32:41.094Z,10.20
2022-12-23T19:35:08.603Z,10.20
2022-12-23T19:37:36.526Z,10.10
2022-12-23T19:40:04.439Z,10.10
2022-12-23T19:42:31.805Z,10.00
2022-12-23T19:44:58.999Z,10.00
2022-12-23T19:47:26.247Z,10.00
2022-12-23T19:49:53.602Z,10.00
2022-12-23T19:52:20.842Z,10.00
2022-12-23T19:54:48.213Z,9.80
2022-12-23T19:57:15.462Z,9.90
2022-12-23T19:59:42.655Z,9.90
2022-12-23T20:02:14.343Z,9.90
2022-12-23T20:04:41.784Z,9.90
2022-12-23T20:07:09.710Z,9.90
2022-12-23T20:09:37.258Z,9.90
2022-12-23T20:12:04.763Z,9.90
2022-12-23T20:14:33.955Z,9.80
2022-12-23T20:17:01.699Z,9.70
2022-12-23T20:19:29.195Z,9.80
2022-12-23T20:21:56.557Z,9.80
2022-12-23T20:24:23.805Z,9.90
2022-12-23T20:26:51.082Z,9.90
2022-12-23T20:29:18.350Z,9.80
2022-12-23T20:31:45.678Z,9.90
2022-12-23T20:34:17.226Z,9.90
2022-12-23T20:36:44.607Z,10.00
2022-12-23T20:39:11.928Z,10.00
2022-12-23T20:41:39.159Z,10.00
2022-12-23T20:44:33.961Z,10.00
2022-12-23T20:46:53.689Z,10.00
2022-12-23T20:49:20.950Z,9.90
2022-12-23T20:51:48.193Z,9.90
2022-12-23T20:54:15.649Z,9.90
2022-12-23T20:56:42.967Z,9.90
2022-12-23T20:59:10.233Z,9.90
2022-12-23T21:01:38.899Z,9.90
2022-12-23T21:04:11.821Z,9.90
2022-12-23T21:06:39.073Z,9.90
2022-12-23T21:09:07.102Z,9.90
2022-12-23T21:11:36.216Z,9.80
2022-12-23T21:14:06.656Z,9.90
2022-12-23T21:16:35.789Z,9.80
2022-12-23T21:19:03.571Z,9.80
2022-12-23T21:21:31.933Z,9.70
2022-12-23T21:24:00.312Z,9.70
2022-12-23T21:26:28.345Z,9.60
2022-12-23T21:28:59.038Z,9.50
2022-12-23T21:31:27.013Z,9.50
2022-12-23T21:33:54.455Z,9.50
2022-12-23T21:36:23.736Z,9.40
2022-12-23T21:38:51.409Z,9.40
2022-12-23T21:41:20.158Z,9.30
2022-12-23T21:43:47.828Z,9.40
2022-12-23T21:46:16.049Z,9.30
2022-12-23T21:48:43.492Z,9.50
2022-12-23T21:51:10.705Z,9.50
2022-12-23T21:53:38.145Z,9.50
2022-12-23T21:56:09.504Z,9.40
2022-12-23T21:58:37.292Z,9.40
2022-12-23T22:01:08.364Z,9.50
2022-12-23T22:03:36.006Z,9.50
2022-12-23T22:06:09.953Z,9.50
2022-12-23T22:08:38.085Z,9.50
2022-12-23T22:11:12.558Z,9.50
2022-12-23T22:13:40.435Z,9.50
2022-12-23T22:16:11.510Z,9.60
2022-12-23T22:18:39.011Z,9.50
2022-12-23T22:21:07.169Z,9.50
2022-12-23T22:23:34.671Z,9.50
2022-12-23T22:26:01.943Z,9.50
2022-12-23T22:28:30.738Z,9.50
2022-12-23T22:31:02.253Z,9.40
2022-12-23T22:33:29.538Z,9.30
2022-12-23T22:35:56.970Z,9.40
2022-12-23T22:38:24.360Z,9.50
2022-12-23T22:40:52.143Z,9.40
2022-12-23T22:43:19.822Z,9.30
2022-12-23T22:45:47.353Z,9.30
2022-12-23T22:48:14.875Z,9.30
2022-12-23T22:50:42.239Z,9.30
2022-12-23T22:53:09.821Z,9.30
2022-12-23T22:55:37.051Z,9.40
2022-12-23T22:58:04.327Z,9.30
2022-12-23T23:00:31.560Z,9.30
2022-12-23T23:02:58.980Z,9.30
2022-12-23T23:05:26.313Z,9.40
2022-12-23T23:07:53.556Z,9.40
2022-12-23T23:10:20.787Z,9.30
2022-12-23T23:12:48.020Z,9.30
2022-12-23T23:15:15.373Z,9.30
2022-12-23T23:17:42.583Z,9.40
2022-12-23T23:20:09.891Z,9.40
2022-12-23T23:22:37.185Z,9.30
2022-12-23T23:25:04.732Z,9.30
2022-12-23T23:27:32.037Z,9.30
2022-12-23T23:29:59.372Z,9.20
2022-12-23T23:32:26.722Z,9.20
2022-12-23T23:34:53.999Z,9.30
2022-12-23T23:37:21.307Z,9.40
2022-12-23T23:39:48.567Z,9.30
2022-12-23T23:42:17.859Z,9.30
2022-12-23T23:44:45.073Z,9.30
2022-12-23T23:47:12.355Z,9.40
2022-12-23T23:49:39.573Z,9.50
2022-12-23T23:52:06.813Z,9.40
2022-12-23T23:54:34.485Z,9.40
2022-12-23T23:57:01.760Z,9.50
2022-12-23T23:59:29.155Z,9.50
